createdAt,value
2023-05-20T00:00:27.497Z,3.75
2023-05-20T00:03:14.645Z,2.67
2023-05-20T00:05:42.726Z,5.75
2023-05-20T00:08:11.044Z,6.95
2023-05-20T00:10:39.144Z,5.07
2023-05-20T00:13:09.340Z,2.45
2023-05-20T00:15:37.383Z,3.13
2023-05-20T00:18:05.289Z,5.38
2023-05-20T00:20:33.492Z,4.53
2023-05-20T00:23:00.990Z,1.70
2023-05-20T00:25:28.631Z,3.47
2023-05-20T00:27:55.968Z,3.97
2023-05-20T00:30:23.571Z,2.83
2023-05-20T00:32:51.044Z,4.18
2023-05-20T00:35:18.831Z,4.80
2023-05-20T00:37:46.170Z,1.95
2023-05-20T00:40:15.597Z,6.40
2023-05-20T00:42:43.210Z,2.78
2023-05-20T00:45:11.314Z,4.85
2023-05-20T00:47:39.561Z,6.90
2023-05-20T00:50:08.325Z,4.00
2023-05-20T00:52:36.278Z,7.07
2023-05-20T00:55:04.418Z,6.90
2023-05-20T00:57:31.863Z,8.02
2023-05-20T00:59:59.755Z,3.90
2023-05-20T01:02:27.228Z,4.45
2023-05-20T01:04:56.594Z,5.68
2023-05-20T01:07:25.407Z,2.92
2023-05-20T01:09:54.277Z,4.15
2023-05-20T01:12:21.635Z,5.97
2023-05-20T01:14:50.415Z,2.53
2023-05-20T01:17:21.106Z,4.05
2023-05-20T01:19:49.055Z,6.97
2023-05-20T01:22:17.083Z,5.25
2023-05-20T01:24:45.605Z,3.30
2023-05-20T01:27:13.558Z,3.70
2023-05-20T01:29:41.866Z,9.27
2023-05-20T01:32:16.156Z,4.25
2023-05-20T01:34:45.246Z,5.72
2023-05-20T01:37:13.862Z,5.18
2023-05-20T01:39:42.065Z,13.75
2023-05-20T01:42:10.314Z,6.30
2023-05-20T01:44:38.338Z,5.97
2023-05-20T01:47:06.075Z,6.13
2023-05-20T01:49:33.901Z,5.72
2023-05-20T01:52:01.253Z,7.10
2023-05-20T01:54:28.967Z,4.43
2023-05-20T01:56:56.496Z,4.80
2023-05-20T01:59:24.255Z,6.60
2023-05-20T02:01:51.762Z,6.05
2023-05-20T02:04:19.504Z,6.53
2023-05-20T02:06:46.858Z,4.47
2023-05-20T02:09:15.233Z,4.95
2023-05-20T02:11:42.608Z,4.05
2023-05-20T02:14:10.600Z,10.38
2023-05-20T02:16:38.194Z,5.22
2023-05-20T02:19:06.078Z,9.40
2023-05-20T02:21:35.302Z,9.07
2023-05-20T02:24:03.052Z,7.75
2023-05-20T02:26:31.016Z,6.75
2023-05-20T02:28:58.670Z,6.35
2023-05-20T02:31:26.045Z,6.22
2023-05-20T02:33:53.793Z,6.00
2023-05-20T02:36:21.200Z,7.60
2023-05-20T02:38:49.208Z,8.88
2023-05-20T02:41:16.544Z,5.05
2023-05-20T02:43:45.270Z,10.73
2023-05-20T02:46:12.790Z,5.00
2023-05-20T02:48:40.487Z,3.67
2023-05-20T02:51:07.871Z,7.50
2023-05-20T02:53:35.611Z,5.78
2023-05-20T02:56:04.567Z,5.40
2023-05-20T02:58:33.271Z,4.10
2023-05-20T03:01:00.614Z,6.18
2023-05-20T03:03:28.364Z,5.25
2023-05-20T03:05:56.067Z,8.20
2023-05-20T03:08:24.173Z,5.15
2023-05-20T03:10:51.837Z,8.32
2023-05-20T03:13:19.492Z,5.72
2023-05-20T03:15:47.075Z,7.25
2023-05-20T03:18:14.874Z,9.32
2023-05-20T03:20:42.265Z,8.93
2023-05-20T03:23:11.094Z,4.57
2023-05-20T03:25:39.113Z,5.18
2023-05-20T03:28:06.998Z,5.68
2023-05-20T03:30:34.349Z,9.02
2023-05-20T03:35:30.495Z,7.38
2023-05-20T03:37:59.585Z,7.32
2023-05-20T03:40:27.006Z,3.90
2023-05-20T03:42:55.040Z,5.32
2023-05-20T03:45:22.493Z,3.63
2023-05-20T03:47:50.447Z,5.88
2023-05-20T03:50:18.155Z,9.70
2023-05-20T03:52:45.773Z,3.67
2023-05-20T03:55:13.192Z,6.53
2023-05-20T03:57:40.973Z,5.55
2023-05-20T04:00:14.374Z,5.00
2023-05-20T04:02:42.167Z,7.32
2023-05-20T04:05:10.432Z,5.25
2023-05-20T04:07:38.125Z,3.42
2023-05-20T04:10:06.157Z,2.78
2023-05-20T04:12:36.049Z,8.65
2023-05-20T04:15:03.648Z,6.13
2023-05-20T04:17:31.913Z,3.45
2023-05-20T04:20:00.061Z,6.53
2023-05-20T04:22:28.081Z,5.80
2023-05-20T04:24:56.596Z,3.33
2023-05-20T04:27:25.804Z,8.43
2023-05-20T04:29:55.245Z,5.50
2023-05-20T04:32:23.840Z,5.95
2023-05-20T04:34:51.391Z,3.67
2023-05-20T04:37:19.039Z,4.07
2023-05-20T04:39:48.312Z,3.85
2023-05-20T04:42:18.431Z,4.43
2023-05-20T04:44:48.929Z,3.42
2023-05-20T04:47:16.699Z,6.50
2023-05-20T04:49:45.695Z,3.63
2023-05-20T04:52:13.412Z,5.03
2023-05-20T04:54:41.503Z,7.10
2023-05-20T04:57:09.204Z,7.63
2023-05-20T04:59:36.516Z,4.25
2023-05-20T05:02:04.309Z,4.63
2023-05-20T05:04:31.682Z,4.10
2023-05-20T05:06:59.448Z,4.85
2023-05-20T05:09:26.972Z,6.15
2023-05-20T05:11:54.854Z,5.85
2023-05-20T05:14:22.371Z,9.55
2023-05-20T05:16:50.590Z,7.35
2023-05-20T05:19:18.219Z,6.57
2023-05-20T05:21:45.927Z,8.70
2023-05-20T05:24:13.454Z,2.67
2023-05-20T05:26:41.210Z,3.90
2023-05-20T05:29:10.983Z,8.93
2023-05-20T05:31:39.428Z,7.70
2023-05-20T05:34:06.829Z,4.75
2023-05-20T05:36:35.204Z,7.80
2023-05-20T05:39:02.627Z,5.18
2023-05-20T05:41:30.253Z,6.47
2023-05-20T05:43:57.749Z,8.63
2023-05-20T05:46:26.015Z,7.57
2023-05-20T05:48:53.835Z,5.22
2023-05-20T05:51:22.117Z,11.75
2023-05-20T05:53:49.632Z,8.82
2023-05-20T05:56:17.276Z,7.10
2023-05-20T05:58:45.422Z,6.60
2023-05-20T06:01:13.076Z,5.88
2023-05-20T06:03:40.649Z,6.07
2023-05-20T06:06:08.550Z,10.60
2023-05-20T06:08:36.025Z,8.38
2023-05-20T06:11:03.780Z,8.52
2023-05-20T06:13:31.144Z,7.30
2023-05-20T06:15:58.788Z,9.07
2023-05-20T06:18:26.180Z,6.32
2023-05-20T06:20:57.523Z,6.65
2023-05-20T06:23:25.017Z,10.10
2023-05-20T06:25:52.918Z,4.80
2023-05-20T06:28:20.428Z,8.65
2023-05-20T06:30:48.254Z,3.83
2023-05-20T06:33:15.690Z,4.93
2023-05-20T06:35:43.400Z,8.27
2023-05-20T06:38:10.845Z,5.55
2023-05-20T06:40:38.771Z,7.47
2023-05-20T06:43:06.133Z,4.60
2023-05-20T06:45:34.176Z,4.90
2023-05-20T06:48:02.135Z,10.68
2023-05-20T06:50:29.819Z,8.32
2023-05-20T06:52:57.199Z,5.72
2023-05-20T06:55:24.918Z,6.82
2023-05-20T06:57:52.300Z,8.10
2023-05-20T07:00:19.975Z,7.05
2023-05-20T07:02:47.379Z,20.90
2023-05-20T07:05:15.352Z,11.20
2023-05-20T07:07:42.835Z,4.50
2023-05-20T07:10:10.671Z,6.20
2023-05-20T07:12:38.227Z,5.40
2023-05-20T07:15:06.164Z,7.38
2023-05-20T07:17:33.705Z,5.65
2023-05-20T07:20:01.496Z,6.82
2023-05-20T07:22:28.884Z,6.90
2023-05-20T07:24:56.862Z,6.63
2023-05-20T07:27:24.260Z,4.28
2023-05-20T07:29:51.942Z,10.07
2023-05-20T07:32:19.296Z,5.88
2023-05-20T07:34:47.130Z,6.82
2023-05-20T07:37:14.849Z,7.00
2023-05-20T07:39:42.500Z,5.57
2023-05-20T07:42:09.945Z,3.33
2023-05-20T07:44:37.556Z,14.40
2023-05-20T07:47:04.975Z,7.18
2023-05-20T07:49:32.671Z,7.82
2023-05-20T07:52:02.717Z,7.97
2023-05-20T07:54:30.808Z,4.35
2023-05-20T07:56:58.637Z,4.90
2023-05-20T07:59:26.294Z,5.55
2023-05-20T08:01:54.333Z,6.57
2023-05-20T08:04:22.132Z,11.43
2023-05-20T08:06:49.576Z,5.93
2023-05-20T08:09:17.315Z,5.32
2023-05-20T08:11:47.045Z,4.50
2023-05-20T08:14:15.130Z,6.03
2023-05-20T08:16:43.381Z,7.63
2023-05-20T08:19:11.250Z,6.95
2023-05-20T08:21:39.176Z,7.10
2023-05-20T08:24:07.154Z,10.90
2023-05-20T08:26:34.613Z,8.38
2023-05-20T08:29:02.589Z,5.60
2023-05-20T08:31:30.102Z,3.88
2023-05-20T08:33:57.811Z,5.25
2023-05-20T08:36:25.452Z,5.60
2023-05-20T08:38:53.209Z,8.65
2023-05-20T08:41:22.706Z,4.65
2023-05-20T08:43:51.522Z,4.13
2023-05-20T08:46:19.432Z,4.50
2023-05-20T08:48:47.120Z,6.00
2023-05-20T08:51:16.515Z,6.95
2023-05-20T08:53:44.673Z,5.85
2023-05-20T08:56:12.571Z,4.50
2023-05-20T08:58:40.526Z,6.22
2023-05-20T09:01:08.402Z,2.33
2023-05-20T09:03:36.031Z,4.63
2023-05-20T09:06:10.082Z,5.60
2023-05-20T09:08:37.916Z,6.13
2023-05-20T09:11:05.384Z,6.00
2023-05-20T09:13:33.008Z,5.43
2023-05-20T09:16:01.579Z,16.00
2023-05-20T09:18:29.963Z,9.50
2023-05-20T09:20:57.439Z,5.93
2023-05-20T09:23:25.936Z,9.23
2023-05-20T09:25:53.518Z,3.95
2023-05-20T09:28:25.169Z,3.50
2023-05-20T09:30:57.323Z,4.63
2023-05-20T09:33:28.292Z,4.13
2023-05-20T09:36:02.850Z,9.38
2023-05-20T09:38:38.248Z,6.38
2023-05-20T09:41:11.299Z,3.40
2023-05-20T09:46:06.478Z,4.07
2023-05-20T09:48:39.034Z,4.97
2023-05-20T09:51:07.983Z,5.43
2023-05-20T09:53:36.558Z,6.45
2023-05-20T09:56:04.266Z,6.35
2023-05-20T09:58:34.504Z,7.32
2023-05-20T10:01:01.927Z,6.07
2023-05-20T10:03:30.055Z,5.57
2023-05-20T10:06:13.562Z,11.30
2023-05-20T10:09:02.187Z,11.43
2023-05-20T10:11:35.594Z,6.63
2023-05-20T10:14:09.257Z,10.32
2023-05-20T10:16:39.699Z,7.63
2023-05-20T10:19:26.565Z,6.25
2023-05-20T10:21:58.000Z,4.32
2023-05-20T10:24:32.377Z,8.13
2023-05-20T10:27:01.370Z,6.32
2023-05-20T10:29:29.286Z,3.95
2023-05-20T10:31:56.906Z,6.47
2023-05-20T10:34:24.946Z,5.65
2023-05-20T10:36:55.756Z,7.43
2023-05-20T10:39:27.911Z,8.77
2023-05-20T10:42:06.200Z,8.32
2023-05-20T10:44:46.113Z,6.32
2023-05-20T10:47:24.474Z,6.88
2023-05-20T10:49:53.966Z,7.00
2023-05-20T10:52:21.503Z,9.00
2023-05-20T10:54:55.536Z,9.30
2023-05-20T10:57:23.444Z,5.72
2023-05-20T10:59:51.612Z,11.77
2023-05-20T11:02:19.752Z,4.53
2023-05-20T11:04:47.405Z,5.15
2023-05-20T11:07:25.064Z,8.38
2023-05-20T11:09:52.715Z,12.98
2023-05-20T11:12:20.166Z,6.65
2023-05-20T11:14:49.098Z,5.53
2023-05-20T11:17:17.838Z,5.82
2023-05-20T11:19:45.644Z,6.68
2023-05-20T11:22:13.062Z,26.98
2023-05-20T11:24:41.439Z,5.65
2023-05-20T11:27:09.367Z,7.18
2023-05-20T11:29:37.153Z,6.60
2023-05-20T11:32:04.759Z,8.75
2023-05-20T11:34:39.282Z,8.65
2023-05-20T11:37:11.295Z,15.32
2023-05-20T11:39:39.312Z,12.83
2023-05-20T11:42:06.741Z,9.23
2023-05-20T11:44:34.921Z,16.23
2023-05-20T11:47:03.197Z,5.47
2023-05-20T11:49:31.389Z,6.90
2023-05-20T11:51:58.911Z,11.55
2023-05-20T11:54:26.671Z,6.95
2023-05-20T11:56:56.556Z,5.85
2023-05-20T11:59:25.243Z,4.85
2023-05-20T12:01:52.763Z,10.32
2023-05-20T12:04:20.488Z,11.15
2023-05-20T12:06:47.970Z,14.65
2023-05-20T12:09:15.697Z,11.82
2023-05-20T12:11:44.749Z,9.65
2023-05-20T12:14:12.989Z,10.32
2023-05-20T12:16:40.478Z,13.02
2023-05-20T12:19:09.339Z,8.02
2023-05-20T12:21:36.765Z,8.93
2023-05-20T12:24:07.093Z,8.23
2023-05-20T12:26:35.457Z,6.10
2023-05-20T12:29:03.324Z,6.25
2023-05-20T12:31:33.104Z,8.85
2023-05-20T12:34:02.452Z,8.55
2023-05-20T12:36:29.895Z,8.02
2023-05-20T12:38:57.582Z,12.80
2023-05-20T12:41:25.090Z,16.95
2023-05-20T12:43:52.823Z,11.70
2023-05-20T12:46:20.326Z,14.48
2023-05-20T12:48:48.899Z,9.82
2023-05-20T12:51:16.293Z,9.60
2023-05-20T12:53:43.920Z,4.65
2023-05-20T12:56:11.385Z,7.70
2023-05-20T12:58:39.020Z,9.25
2023-05-20T13:01:06.418Z,7.30
2023-05-20T13:03:34.204Z,11.68
2023-05-20T13:06:01.680Z,6.35
2023-05-20T13:08:29.324Z,6.55
2023-05-20T13:10:56.888Z,8.05
2023-05-20T13:13:25.011Z,7.35
2023-05-20T13:15:52.331Z,5.95
2023-05-20T13:18:20.255Z,8.98
2023-05-20T13:20:47.941Z,8.07
2023-05-20T13:23:15.619Z,11.38
2023-05-20T13:25:43.061Z,18.83
2023-05-20T13:28:12.501Z,12.70
2023-05-20T13:30:40.116Z,15.25
2023-05-20T13:33:07.809Z,7.57
2023-05-20T13:35:35.455Z,12.40
2023-05-20T13:38:03.085Z,7.47
2023-05-20T13:40:30.557Z,7.30
2023-05-20T13:42:58.340Z,6.35
2023-05-20T13:45:26.427Z,8.07
2023-05-20T13:47:54.182Z,8.20
2023-05-20T13:50:21.733Z,10.23
2023-05-20T13:52:49.780Z,7.85
2023-05-20T13:55:17.521Z,11.00
2023-05-20T13:57:45.361Z,8.75
2023-05-20T14:00:13.555Z,10.48
2023-05-20T14:02:41.411Z,15.45
2023-05-20T14:05:09.181Z,4.82
2023-05-20T14:07:37.074Z,5.90
2023-05-20T14:10:04.754Z,8.73
2023-05-20T14:12:32.445Z,9.93
2023-05-20T14:14:59.824Z,12.30
2023-05-20T14:17:27.833Z,4.75
2023-05-20T14:19:55.487Z,6.00
2023-05-20T14:22:23.156Z,11.48
2023-05-20T14:24:50.576Z,6.05
2023-05-20T14:27:18.316Z,8.73
2023-05-20T14:29:45.797Z,9.77
2023-05-20T14:32:14.249Z,10.02
2023-05-20T14:34:41.798Z,9.05
2023-05-20T14:37:11.758Z,8.68
2023-05-20T14:39:39.622Z,8.20
2023-05-20T14:42:07.328Z,12.18
2023-05-20T14:44:34.712Z,12.48
2023-05-20T14:47:02.553Z,12.65
2023-05-20T14:49:30.061Z,10.85
2023-05-20T14:51:57.778Z,5.38
2023-05-20T14:54:26.615Z,10.48
2023-05-20T14:56:55.010Z,7.70
2023-05-20T14:59:22.616Z,6.88
2023-05-20T15:01:50.393Z,5.53
2023-05-20T15:04:17.766Z,5.82
2023-05-20T15:06:45.445Z,7.38
2023-05-20T15:09:12.862Z,8.70
2023-05-20T15:11:40.585Z,5.20
2023-05-20T15:14:08.124Z,6.45
2023-05-20T15:16:36.121Z,12.60
2023-05-20T15:19:03.668Z,13.15
2023-05-20T15:21:31.544Z,8.30
2023-05-20T15:23:58.908Z,7.45
2023-05-20T15:26:26.867Z,11.95
2023-05-20T15:28:54.242Z,6.50
2023-05-20T15:31:22.154Z,9.57
2023-05-20T15:33:49.576Z,8.50
2023-05-20T15:36:17.513Z,8.95
2023-05-20T15:38:45.549Z,6.00
2023-05-20T15:41:14.513Z,8.32
2023-05-20T15:43:42.358Z,7.72
2023-05-20T15:46:10.126Z,9.30
2023-05-20T15:48:38.346Z,6.72
2023-05-20T15:51:06.543Z,8.60
2023-05-20T15:53:33.974Z,5.25
2023-05-20T15:56:02.045Z,7.20
2023-05-20T15:58:29.457Z,9.15
2023-05-20T16:00:58.227Z,7.07
2023-05-20T16:03:25.937Z,9.98
2023-05-20T16:05:53.707Z,4.80
2023-05-20T16:08:23.846Z,6.13
2023-05-20T16:10:51.578Z,5.85
2023-05-20T16:13:19.038Z,7.75
2023-05-20T16:15:47.247Z,6.40
2023-05-20T16:18:14.627Z,7.57
2023-05-20T16:20:42.407Z,8.07
2023-05-20T16:23:09.823Z,7.53
2023-05-20T16:25:37.559Z,8.15
2023-05-20T16:28:05.037Z,9.02
2023-05-20T16:30:33.039Z,12.43
2023-05-20T16:33:00.742Z,9.05
2023-05-20T16:35:28.857Z,8.65
2023-05-20T16:37:56.549Z,20.90
2023-05-20T16:40:24.217Z,5.25
2023-05-20T16:42:51.602Z,7.07
2023-05-20T16:45:19.351Z,8.18
2023-05-20T16:47:46.859Z,12.70
2023-05-20T16:50:14.573Z,5.72
2023-05-20T16:52:42.334Z,21.15
2023-05-20T16:55:10.584Z,8.18
2023-05-20T16:57:38.133Z,8.80
2023-05-20T17:00:09.962Z,7.13
2023-05-20T17:02:37.393Z,16.52
2023-05-20T17:05:05.294Z,8.65
2023-05-20T17:07:33.642Z,10.27
2023-05-20T17:10:01.597Z,9.77
2023-05-20T17:12:29.118Z,18.13
2023-05-20T17:14:56.844Z,10.80
2023-05-20T17:17:24.446Z,5.57
2023-05-20T17:19:52.131Z,9.25
2023-05-20T17:22:19.576Z,7.32
2023-05-20T17:24:47.275Z,8.65
2023-05-20T17:27:15.081Z,5.05
2023-05-20T17:29:42.832Z,10.55
2023-05-20T17:32:12.567Z,10.15
2023-05-20T17:34:40.538Z,9.98
2023-05-20T17:37:08.107Z,14.65
2023-05-20T17:39:35.823Z,7.50
2023-05-20T17:42:04.038Z,11.25
2023-05-20T17:44:31.734Z,7.20
2023-05-20T17:46:59.777Z,8.35
2023-05-20T17:49:27.428Z,8.13
2023-05-20T17:51:55.612Z,7.38
2023-05-20T17:54:23.712Z,12.20
2023-05-20T17:56:51.852Z,9.95
2023-05-20T17:59:19.279Z,9.60
2023-05-20T18:01:47.186Z,11.00
2023-05-20T18:04:15.193Z,14.52
2023-05-20T18:06:43.305Z,10.43
2023-05-20T18:09:10.971Z,9.52
2023-05-20T18:11:39.338Z,9.52
2023-05-20T18:14:06.994Z,7.90
2023-05-20T18:16:35.509Z,9.48
2023-05-20T18:19:03.318Z,7.82
2023-05-20T18:21:31.325Z,8.27
2023-05-20T18:23:58.929Z,9.38
2023-05-20T18:26:27.124Z,12.98
2023-05-20T18:28:54.576Z,7.68
2023-05-20T18:31:22.319Z,10.82
2023-05-20T18:33:50.055Z,11.27
2023-05-20T18:36:18.243Z,13.82
2023-05-20T18:38:46.706Z,12.05
2023-05-20T18:41:14.594Z,14.23
2023-05-20T18:43:42.177Z,12.30
2023-05-20T18:46:10.066Z,11.57
2023-05-20T18:48:37.820Z,11.68
2023-05-20T18:51:05.765Z,13.75
2023-05-20T18:53:33.399Z,10.52
2023-05-20T18:56:03.207Z,17.00
2023-05-20T18:58:31.362Z,14.07
2023-05-20T19:00:59.519Z,10.57
2023-05-20T19:03:27.064Z,13.23
2023-05-20T19:05:55.526Z,15.05
2023-05-20T19:08:23.499Z,14.95
2023-05-20T19:10:51.656Z,13.55
2023-05-20T19:13:19.343Z,11.18
2023-05-20T19:15:47.291Z,13.77
2023-05-20T19:18:14.954Z,10.65
2023-05-20T19:20:42.784Z,11.20
2023-05-20T19:23:11.179Z,13.32
2023-05-20T19:25:39.121Z,11.70
2023-05-20T19:28:06.870Z,10.18
2023-05-20T19:30:35.811Z,6.47
2023-05-20T19:33:05.301Z,9.20
2023-05-20T19:35:33.981Z,12.15
2023-05-20T19:38:02.061Z,8.27
2023-05-20T19:40:30.483Z,9.95
2023-05-20T19:42:58.099Z,18.50
2023-05-20T19:45:25.987Z,11.65
2023-05-20T19:47:53.632Z,7.78
2023-05-20T19:50:21.531Z,11.02
2023-05-20T19:52:49.712Z,14.40
2023-05-20T19:55:18.355Z,11.23
2023-05-20T19:57:47.684Z,8.90
2023-05-20T20:00:16.307Z,13.00
2023-05-20T20:02:43.840Z,13.60
2023-05-20T20:05:12.925Z,11.93
2023-05-20T20:07:40.516Z,15.65
2023-05-20T20:10:08.900Z,12.93
2023-05-20T20:12:36.296Z,11.85
2023-05-20T20:15:05.041Z,10.20
2023-05-20T20:17:33.800Z,12.50
2023-05-20T20:20:01.739Z,12.40
2023-05-20T20:22:29.376Z,16.63
2023-05-20T20:24:57.254Z,27.65
2023-05-20T20:27:24.801Z,23.13
2023-05-20T20:29:52.784Z,16.55
2023-05-20T20:32:20.419Z,18.73
2023-05-20T20:34:48.403Z,20.85
2023-05-20T20:37:16.112Z,38.30
2023-05-20T20:39:46.874Z,20.63
2023-05-20T20:42:14.596Z,21.80
2023-05-20T20:44:42.689Z,31.50
2023-05-20T20:47:10.260Z,28.27
2023-05-20T20:49:38.396Z,15.85
2023-05-20T20:52:06.062Z,15.48
2023-05-20T20:54:34.252Z,18.75
2023-05-20T20:57:02.814Z,16.25
2023-05-20T20:59:30.668Z,19.67
2023-05-20T21:01:58.101Z,20.85
2023-05-20T21:04:27.821Z,27.20
2023-05-20T21:06:55.340Z,17.83
2023-05-20T21:09:23.595Z,18.77
2023-05-20T21:11:50.935Z,17.92
2023-05-20T21:14:18.864Z,20.88
2023-05-20T21:16:46.276Z,22.67
2023-05-20T21:19:14.001Z,20.55
2023-05-20T21:21:41.712Z,17.42
2023-05-20T21:24:09.520Z,20.83
2023-05-20T21:26:36.856Z,17.55
2023-05-20T21:29:05.940Z,16.15
2023-05-20T21:31:33.511Z,21.08
2023-05-20T21:34:01.362Z,12.02
2023-05-20T21:36:28.856Z,15.48
2023-05-20T21:38:56.740Z,16.77
2023-05-20T21:41:24.430Z,11.50
2023-05-20T21:43:52.035Z,11.05
2023-05-20T21:46:19.431Z,12.10
2023-05-20T21:48:47.146Z,14.48
2023-05-20T21:51:14.564Z,14.80
2023-05-20T21:53:42.273Z,11.30
2023-05-20T21:56:09.640Z,15.23
2023-05-20T21:58:41.034Z,9.23
2023-05-20T22:01:11.922Z,9.20
2023-05-20T22:03:40.046Z,14.70
2023-05-20T22:06:07.795Z,11.63
2023-05-20T22:08:35.509Z,11.45
2023-05-20T22:11:07.338Z,10.50
2023-05-20T22:13:36.132Z,12.75
2023-05-20T22:16:04.990Z,11.85
2023-05-20T22:18:33.044Z,16.95
2023-05-20T22:21:01.077Z,15.02
2023-05-20T22:23:29.270Z,11.43
2023-05-20T22:25:56.837Z,18.17
2023-05-20T22:28:26.246Z,17.35
2023-05-20T22:30:53.701Z,12.73
2023-05-20T22:33:22.939Z,17.13
2023-05-20T22:35:51.455Z,16.60
2023-05-20T22:38:19.205Z,13.77
2023-05-20T22:40:46.663Z,12.25
2023-05-20T22:43:14.377Z,11.93
2023-05-20T22:45:41.900Z,9.32
2023-05-20T22:48:09.747Z,14.20
2023-05-20T22:50:37.232Z,17.13
2023-05-20T22:53:05.110Z,14.45
2023-05-20T22:55:32.545Z,12.52
2023-05-20T22:58:00.469Z,14.88
2023-05-20T23:00:27.868Z,11.95
2023-05-20T23:02:56.622Z,13.13
2023-05-20T23:05:24.171Z,9.70
2023-05-20T23:07:52.761Z,10.85
2023-05-20T23:10:20.799Z,14.60
2023-05-20T23:12:48.604Z,12.98
2023-05-20T23:15:16.565Z,12.18
2023-05-20T23:17:44.357Z,9.35
2023-05-20T23:20:14.145Z,9.25
2023-05-20T23:22:42.231Z,10.43
2023-05-20T23:25:10.028Z,12.52
2023-05-20T23:27:37.756Z,10.73
2023-05-20T23:30:05.661Z,11.40
2023-05-20T23:32:33.334Z,10.60
2023-05-20T23:35:04.824Z,11.95
2023-05-20T23:37:34.374Z,12.32
2023-05-20T23:40:01.841Z,12.15
2023-05-20T23:42:29.565Z,13.77
2023-05-20T23:44:56.964Z,11.57
2023-05-20T23:47:25.988Z,15.15
2023-05-20T23:49:55.889Z,13.23
2023-05-20T23:52:24.740Z,13.75
2023-05-20T23:54:52.476Z,13.93
2023-05-20T23:57:20.801Z,17.60
2023-05-20T23:59:51.600Z,17.35
